Arlington, Virginia
Current Conditions -  °F | °C
As of 7:52 AM on Sunday 23 Nov 2014 (Local Time) from KDCA Reporting Station
Scattered Clouds Scattered Clouds  
Wind Chill:   Ceiling: Unl
Heat Index:   Visibility: 10mi
Dew Point: -6°   Wind: 5mph
Humidity: 47%   Direction: 200°SSW
Pressure: 30.25"   Gusts: NA
Location:  38.89°N, 77.09°W
Report Text: KDCA 231252Z 20004KT 10SM FEW120 SCT250 05/M06 A3025 RMK AO2 SLP242 T00501056
Loading
Personal Weather Stations






























Interactive Weather Map New forecast layout! Learn more

10-Day Weather Forecast

Advertisements
Track Severe Weather on mobile